LEMH/MAH METAR and TAF weather

Enter ICAO airport designator
Station Type Date Time Source
LEMH METAR 2019/07/18 10:30 UTC NOAA

LEMH 181030Z VRB04KT 9999 FEW040 29/17 Q1015


Station Type Date Time Source
LEMH Decoded METAR 2019/07/18 10:30 UTC NOAA

Menorca / Mahon, Spain (LEMH) 39-52N 004-14E 82M
Jul 18, 2019 - 06:30 AM EDT / 2019.07.18 1030 UTC
Wind: Variable at 5 MPH (4 KT):0
Visibility: greater than 7 mile(s):0
Sky conditions: mostly clear
Temperature: 84 F (29 C)
Dew Point: 62 F (17 C)
Relative Humidity: 48%
Pressure (altimeter): 29.97 in. Hg (1015 hPa)
ob: LEMH 181030Z VRB04KT 9999 FEW040 29/17 Q1015
cycle: 10

Station Type Date Time Source
LEMH TAF 2019/07/18 09:29 UTC NOAA

TAF LEMH 180800Z 1809/1909 02010KT 9999 FEW020 TX30/1812Z TN21/1905Z
TEMPO 1810/1814 02012G24KT
BECMG 1817/1819 VRB04KT

Example: see airport list